Home > Products > Valid Products > TAF

000
FTUS41 KCAR 020946 AAA
TAFCAR
TAF AMD
KCAR 020946Z 0210/0306 22010G18KT P6SM SCT025 OVC035
     FM021400 22012G22KT P6SM BKN040
     FM030000 24008KT P6SM BKN050=



000
FTUS41 KCAR 020943 AAA
TAFPQI
TAF AMD
KPQI 020943Z 0210/0306 22010KT P6SM SCT025 OVC035
     FM021400 22012G22KT P6SM BKN040
     FM030000 24008KT P6SM BKN050
      AMD LTD TO CLD VIS AND WIND=



000
FTUS41 KCAR 020941 AAA
TAFBGR
TAF AMD
KBGR 020941Z 0210/0306 25004KT 1/2SM FG OVC002
      TEMPO 0210/0212 1/4SM FG VV001
     FM021200 25006KT P6SM SCT005 BKN035
     FM021400 24012G20KT P6SM SCT050
     FM030000 24008KT P6SM SCT050=



000
FTUS41 KCAR 020534
TAFCAR
TAF
KCAR 020534Z 0206/0306 18008KT P6SM VCSH OVC005
      TEMPO 0206/0208 5SM -SHRA BR
     FM020800 20008KT P6SM VCSH OVC008
     FM021000 22010KT P6SM OVC020
     FM021400 22012G22KT P6SM BKN040
     FM030000 24008KT P6SM BKN050=



000
FTUS41 KCAR 020534
TAFHUL
TAF
KHUL 020534Z 0206/0306 18008KT P6SM VCSH OVC005
     FM020800 20008KT P6SM OVC010
     FM021000 22010KT P6SM BKN025
     FM021300 22012G22KT P6SM BKN050
     FM030000 24008KT P6SM SCT050=



000
FTUS41 KCAR 020534
TAFBGR
TAF
KBGR 020534Z 0206/0306 22004KT 1/2SM FG OVC002
      TEMPO 0206/0208 1/4SM FG VV002
     FM020800 22006KT 1SM BR BKN003
     FM021000 25008KT P6SM SCT040
     FM021400 24012G20KT P6SM SCT050
     FM030000 24008KT P6SM SCT050=



000
FTUS41 KCAR 020534
TAFPQI
TAF
KPQI 020534Z 0206/0306 18008KT P6SM VCSH OVC009
      TEMPO 0206/0208 6SM -SHRA
     FM020800 20008KT P6SM OVC015
     FM021000 22010KT P6SM OVC025
     FM021400 22012G22KT P6SM BKN040
     FM030000 24008KT P6SM BKN050
      AMD LTD TO CLD VIS AND WIND=



000
FTUS41 KCAR 020534
TAFBHB
TAF
KBHB 020534Z 0206/0306 20006KT 1/2SM FG OVC002
      TEMPO 0206/0208 1/4SM FG
     FM020800 22006KT 1SM BR BKN003
     FM021000 25010KT P6SM SCT040
     FM021400 24012G20KT P6SM SCT050
     FM030000 24008KT P6SM SCT050
      AMD LTD TO CLD VIS AND WIND=



000
FTUS41 KCAR 020502 AAA
TAFCAR
TAF AMD
KCAR 020502Z 0205/0224 18008KT P6SM VCSH OVC005
      TEMPO 0205/0208 6SM -SHRA BR
     FM020800 20010KT P6SM BKN015
     FM021100 23010G20KT P6SM SCT020 BKN035
     FM021700 25012G22KT P6SM BKN045=



000
FTUS41 KCAR 020502 AAA
TAFCAR
TAF AMD
KCAR 020502Z 0205/0224 18008KT P6SM VCSH OVC005
      TEMPO 0205/0208 6SM -SHRA BR
     FM020800 20010KT P6SM BKN015
     FM021100 23010G20KT P6SM SCT020 BKN035
     FM021700 25012G22KT P6SM BKN045=



000
FTUS41 KCAR 020459 AAC
TAFBGR
TAF AMD
KBGR 020459Z 0205/0224 21004KT 1/4SM FG VV002
     FM020800 23007KT 1SM BR SCT003
     FM021000 25010G20KT P6SM SKC
     FM021700 22010G20KT P6SM SCT045=



000
FTUS41 KCAR 020358 AAB
TAFBHB
TAF AMD
KBHB 020358Z 0204/0224 20006KT 1/2SM FG OVC002
     FM020500 20005KT 1/4SM FG OVC001
     FM020900 21005KT 1SM BR SCT001 OVC003
     FM021200 24009KT P6SM SCT001
     FM021700 23010KT P6SM SCT050
      AMD LTD TO CLD VIS AND WIND=



000
FTUS41 KCAR 020336 AAA
TAFHUL
TAF AMD
KHUL 020336Z 0204/0224 15011KT P6SM OVC007
     FM020600 18008KT P6SM OVC005
     FM020800 21008KT P6SM BKN015
     FM021100 22010G20KT P6SM BKN050
     FM021600 25012G22KT P6SM SCT050=



000
FTUS41 KCAR 020235 AAB
TAFBGR
TAF AMD
KBGR 020235Z 0203/0224 19007KT 1SM BR OVC002
     FM020400 19006KT 1/2SM FG BKN001
     FM020800 23007KT 1SM BR SCT003
     FM021000 25010G20KT P6SM SKC
     FM021700 22010G20KT P6SM SCT045=



000
FTUS41 KCAR 020235 AAB
TAFBGR
TAF AMD
KBGR 020235Z 0203/0224 19007KT 1SM BR OVC002
     FM020400 19006KT 1/2SM FG BKN001
     FM020800 23007KT 1SM BR SCT003
     FM021000 25010G20KT P6SM SKC
     FM021700 22010G20KT P6SM SCT045=



000
FTUS41 KCAR 020131 AAA
TAFBGR
TAF AMD
KBGR 020131Z 0202/0224 19007KT 1SM BR OVC002
     FM020400 19006KT 1/2SM FG BKN001
     FM020800 23007KT 1SM BR SCT003
     FM021000 25010G20KT P6SM SKC
     FM021700 22010G20KT P6SM SCT045=



000
FTUS41 KCAR 020110 AAA
TAFBHB
TAF AMD
KBHB 020110Z 0201/0224 17006KT 1/2SM FG OVC002
     FM020400 20006KT 1/4SM FG OVC001
     FM020900 21005KT 1SM BR SCT001 OVC003
     FM021200 24009KT P6SM SCT001
     FM021700 23010KT P6SM SCT050
      AMD LTD TO CLD VIS AND WIND=



000
FTUS41 KCAR 020110 AAA
TAFBHB
TAF AMD
KBHB 020110Z 0201/0224 17006KT 1/2SM FG OVC002
     FM020400 20006KT 1/4SM FG OVC001
     FM020900 21005KT 1SM BR SCT001 OVC003
     FM021200 24009KT P6SM SCT001
     FM021700 23010KT P6SM SCT050
      AMD LTD TO CLD VIS AND WIND=



000
FTUS41 KCAR 012348
TAFHUL
TAF
KHUL 012348Z 0200/0224 15011KT P6SM -RA OVC025
     FM020200 16010KT P6SM OVC015
     FM020400 18008KT P6SM OVC008
     FM020800 21008KT P6SM BKN015
     FM021100 22010G20KT P6SM BKN050
     FM021600 25012G22KT P6SM SCT050=



000
FTUS41 KCAR 012348
TAFPQI
TAF
KPQI 012348Z 0200/0224 14010KT 4SM -SHRA OVC025
     FM020200 15010KT P6SM OVC015
     FM020500 16009KT P6SM OVC007
     FM020900 19010KT P6SM BKN015
     FM021100 22010G20KT P6SM SCT015 BKN050
     FM021700 25012G22KT P6SM SCT045
      AMD LTD TO CLD VIS AND WIND=



000
FTUS41 KCAR 012348
TAFCAR
TAF
KCAR 012348Z 0200/0224 14010KT 2SM RA SCT025 OVC040
     FM020100 15010KT P6SM OVC015
     FM020300 16009KT P6SM OVC010
     FM020500 18009KT P6SM OVC008
     FM020800 20010KT P6SM BKN015
     FM021100 23010G20KT P6SM SCT020 BKN035
     FM021700 25012G22KT P6SM BKN045=



000
FTUS41 KCAR 012348
TAFBHB
TAF
KBHB 012348Z 0200/0224 17006KT P6SM OVC003
     FM020300 20006KT 3SM BR BKN001
     FM020700 22006KT 1 1/2SM BR OVC001
     FM020900 21005KT 1/2SM FG OVC001
     FM021200 24009KT P6SM SCT001
     FM021700 23010KT P6SM SCT050
      AMD LTD TO CLD VIS AND WIND=



000
FTUS41 KCAR 012348
TAFBGR
TAF
KBGR 012348Z 0200/0224 16007KT P6SM OVC007
     FM020300 19006KT 3SM BR BKN002
     FM020700 23007KT P6SM SCT003
     FM021100 25010G20KT P6SM SKC
     FM021700 22010G20KT P6SM SCT045=



000
FTUS41 KCAR 012311 AAB
TAFCAR
TAF AMD
KCAR 012311Z 0123/0218 16010KT 3SM RA SCT020 OVC045
     FM020000 14010KT P6SM -SHRA OVC015
     FM020300 16009KT P6SM OVC008
     FM020900 20010KT P6SM BKN015
     FM021100 22011KT P6SM BKN040=



000
FTUS41 KCAR 012311 AAB
TAFCAR
TAF AMD
KCAR 012311Z 0123/0218 16010KT 3SM RA SCT020 OVC045
     FM020000 14010KT P6SM -SHRA OVC015
     FM020300 16009KT P6SM OVC008
     FM020900 20010KT P6SM BKN015
     FM021100 22011KT P6SM BKN040=



000
FTUS41 KCAR 012229 AAA
TAFHUL
TAF AMD
KHUL 012229Z 0122/0218 VRB03KT 6SM -SHRA SCT025 OVC070
     FM020000 17010KT P6SM -RA OVC015
     FM020300 17010KT P6SM OVC007
     FM020800 20008KT P6SM BKN015
     FM021000 21008KT P6SM BKN040
     FM021600 23010KT P6SM SCT040=



000
FTUS41 KCAR 012132 AAA
TAFBGR
TAF AMD
KBGR 012132Z 0122/0218 16010KT 3SM -RA VCTS OVC003CB
     FM012300 16007KT P6SM OVC008
     FM020000 16007KT P6SM OVC003
     FM020400 20005KT P6SM SCT003
     FM021100 25007KT P6SM SCT250=



000
FTUS41 KCAR 012109 AAB
TAFBHB
TAF AMD
KBHB 012109Z 0121/0218 08006KT P6SM OVC003
     FM012200 17006KT 1SM BR OVC002
     FM020800 23006KT P6SM SCT002
     FM021100 26007KT P6SM FEW250
      AMD LTD TO CLD VIS AND WIND=



000
FTUS41 KCAR 011839 AAA
TAFBHB
TAF AMD
KBHB 011839Z 0119/0218 14010KT 1 1/2SM BR VCSH OVC003
     FM012000 15008KT 1/2SM FG VCSH OVC002
     FM012200 17006KT 1/4SM FG OVC002
     FM020800 23006KT P6SM SCT002
     FM021100 26007KT P6SM FEW250
      AMD LTD TO CLD VIS AND WIND=



000
FTUS41 KCAR 011736
TAFBHB
TAF
KBHB 011736Z 0118/0218 14010KT P6SM -SHRA OVC010
     FM012000 15008KT 1/2SM FG VCSH OVC003
     FM012200 17006KT 1/4SM FG OVC002
     FM020800 23006KT P6SM SCT002
     FM021100 26007KT P6SM FEW250
      AMD LTD TO CLD VIS AND WIND=



000
FTUS41 KCAR 011736
TAFBGR
TAF
KBGR 011736Z 0118/0218 15009KT P6SM -SHRA OVC025
     FM012000 16008KT 2SM -SHRA OVC015
     FM012300 16007KT P6SM OVC008
     FM020000 16007KT P6SM OVC003
     FM020400 20005KT P6SM SCT003
     FM021100 25007KT P6SM SCT250=



000
FTUS41 KCAR 011736
TAFPQI
TAF
KPQI 011736Z 0118/0218 16010KT P6SM -SHRA OVC040
     FM020000 14010KT P6SM OVC015
     FM020300 16009KT P6SM OVC008
     FM020900 20010KT P6SM BKN015
     FM021100 22011KT P6SM BKN040
      AMD LTD TO CLD VIS AND WIND=



000
FTUS41 KCAR 011736
TAFCAR
TAF
KCAR 011736Z 0118/0218 16010KT P6SM -SHRA OVC040
     FM012000 16010KT 5SM -SHRA OVC025
     FM020000 14010KT P6SM OVC015
     FM020300 16009KT P6SM OVC008
     FM020900 20010KT P6SM BKN015
     FM021100 22011KT P6SM BKN040=



000
FTUS41 KCAR 011736
TAFHUL
TAF
KHUL 011736Z 0118/0218 16009KT P6SM VCSH OVC060
     FM012200 15011KT 6SM -SHRA OVC025
     FM020000 15011KT P6SM OVC015
     FM020300 17010KT P6SM OVC008
     FM020800 20008KT P6SM BKN015
     FM021000 21008KT P6SM BKN040
     FM021600 23010KT P6SM SCT040=



000
FTUS41 KCAR 011736
TAFBHB
TAF
KBHB 011736Z 0118/0218 14010KT P6SM -SHRA OVC010
     FM012000 15008KT 1/2SM FG VCSH OVC003
     FM012200 17006KT 1/4SM FG OVC002
     FM020800 23006KT P6SM SCT002
     FM021100 26007KT P6SM FEW250
      AMD LTD TO CLD VIS AND WIND=



000
FTUS41 KCAR 011736
TAFHUL
TAF
KHUL 011736Z 0118/0218 16009KT P6SM VCSH OVC060
     FM012200 15011KT 6SM -SHRA OVC025
     FM020000 15011KT P6SM OVC015
     FM020300 17010KT P6SM OVC008
     FM020800 20008KT P6SM BKN015
     FM021000 21008KT P6SM BKN040
     FM021600 23010KT P6SM SCT040=



000
FTUS41 KCAR 011736
TAFPQI
TAF
KPQI 011736Z 0118/0218 16010KT P6SM -SHRA OVC040
     FM020000 14010KT P6SM OVC015
     FM020300 16009KT P6SM OVC008
     FM020900 20010KT P6SM BKN015
     FM021100 22011KT P6SM BKN040
      AMD LTD TO CLD VIS AND WIND=



000
FTUS41 KCAR 011736
TAFBGR
TAF
KBGR 011736Z 0118/0218 15009KT P6SM -SHRA OVC025
     FM012000 16008KT 2SM -SHRA OVC015
     FM012300 16007KT P6SM OVC008
     FM020000 16007KT P6SM OVC003
     FM020400 20005KT P6SM SCT003
     FM021100 25007KT P6SM SCT250=



000
FTUS41 KCAR 011736
TAFCAR
TAF
KCAR 011736Z 0118/0218 16010KT P6SM -SHRA OVC040
     FM012000 16010KT 5SM -SHRA OVC025
     FM020000 14010KT P6SM OVC015
     FM020300 16009KT P6SM OVC008
     FM020900 20010KT P6SM BKN015
     FM021100 22011KT P6SM BKN040=



000
FTUS41 KCAR 011534 AAB
TAFBGR
TAF AMD
KBGR 011534Z 0116/0212 20009KT 6SM -SHRA BKN011 OVC110
      TEMPO 0116/0118 P6SM NSW SCT011 OVC100
     FM012100 15007KT 2SM BR OVC005
     FM021000 24005KT P6SM SCT005=



000
FTUS41 KCAR 011436 AAA
TAFBGR
TAF AMD
KBGR 011436Z 0115/0212 20009KT P6SM -SHRA BKN011 OVC110
     FM011600 16008KT 5SM -SHRA OVC020
     FM011800 16009KT 6SM -SHRA VCTS OVC025CB
     FM012100 15007KT 2SM BR OVC005
     FM021000 24005KT P6SM SCT005=



000
FTUS41 KCAR 011436 AAA
TAFBGR
TAF AMD
KBGR 011436Z 0115/0212 20009KT P6SM -SHRA BKN011 OVC110
     FM011600 16008KT 5SM -SHRA OVC020
     FM011800 16009KT 6SM -SHRA VCTS OVC025CB
     FM012100 15007KT 2SM BR OVC005
     FM021000 24005KT P6SM SCT005=



000
FTUS41 KCAR 011403 AAA
TAFBHB
TAF AMD
KBHB 011403Z 0114/0212 17005KT P6SM OVC007
     FM011700 16009KT 2SM -SHRA BR VCTS OVC010CB
     FM012200 14008KT 2SM BR OVC005
     FM020000 13007KT 2SM BR OVC003 WS020/22035KT
     FM020200 15006KT P6SM BKN003
     FM020900 21005KT P6SM SCT001
      AMD LTD TO CLD VIS AND WIND=



000
FTUS41 KCAR 011121
TAFBHB
TAF
KBHB 011121Z 0112/0212 17005KT 1/2SM FG BKN002
     FM011700 16009KT 2SM -SHRA BR VCTS OVC010CB
     FM012200 14008KT 2SM BR OVC005
     FM020000 13007KT 2SM BR OVC003 WS020/22035KT
     FM020200 15006KT P6SM BKN003
     FM020900 21005KT P6SM SCT001
      AMD LTD TO CLD VIS AND WIND=



000
FTUS41 KCAR 011121
TAFPQI
TAF
KPQI 011121Z 0112/0212 16006KT P6SM BKN250
     FM011600 16007KT P6SM OVC030
     FM011800 16008KT 6SM -SHRA OVC015
     FM012000 16009KT 6SM -SHRA VCTS OVC025CB
     FM012300 17009KT P6SM OVC020
     FM020500 16008KT P6SM OVC012
     FM021100 21008KT P6SM BKN025
      AMD LTD TO CLD VIS AND WIND=



000
FTUS41 KCAR 011121
TAFCAR
TAF
KCAR 011121Z 0112/0212 16006KT P6SM BKN100
     FM011700 16008KT 6SM -SHRA OVC020
     FM012000 16009KT 6SM -SHRA VCTS OVC020CB
     FM020000 17008KT P6SM OVC020
     FM020500 16008KT P6SM OVC007
     FM021000 20007KT P6SM BKN015=



000
FTUS41 KCAR 011121
TAFHUL
TAF
KHUL 011121Z 0112/0212 15005KT P6SM BKN250
     FM011600 16005KT P6SM OVC025
     FM011900 16006KT 6SM -SHRA OVC025
     FM012000 16006KT 6SM -SHRA VCTS OVC040CB
     FM012200 16007KT P6SM OVC040
     FM020000 16008KT P6SM OVC010 WS020/15040KT
     FM020100 16008KT P6SM OVC010
     FM021100 22005KT P6SM BKN015=



000
FTUS41 KCAR 011121
TAFBGR
TAF
KBGR 011121Z 0112/0212 17004KT P6SM OVC050
     FM011500 16008KT 6SM -SHRA OVC020
     FM011800 16009KT 6SM -SHRA VCTS OVC025CB
     FM012100 15007KT 2SM BR OVC005
     FM021000 24005KT P6SM SCT005=



000
FTUS41 KCAR 011121
TAFBGR
TAF
KBGR 011121Z 0112/0212 17004KT P6SM OVC050
     FM011500 16008KT 6SM -SHRA OVC020
     FM011800 16009KT 6SM -SHRA VCTS OVC025CB
     FM012100 15007KT 2SM BR OVC005
     FM021000 24005KT P6SM SCT005=



000
FTUS41 KCAR 011121
TAFPQI
TAF
KPQI 011121Z 0112/0212 16006KT P6SM BKN250
     FM011600 16007KT P6SM OVC030
     FM011800 16008KT 6SM -SHRA OVC015
     FM012000 16009KT 6SM -SHRA VCTS OVC025CB
     FM012300 17009KT P6SM OVC020
     FM020500 16008KT P6SM OVC012
     FM021100 21008KT P6SM BKN025
      AMD LTD TO CLD VIS AND WIND=



000
FTUS41 KCAR 011121
TAFCAR
TAF
KCAR 011121Z 0112/0212 16006KT P6SM BKN100
     FM011700 16008KT 6SM -SHRA OVC020
     FM012000 16009KT 6SM -SHRA VCTS OVC020CB
     FM020000 17008KT P6SM OVC020
     FM020500 16008KT P6SM OVC007
     FM021000 20007KT P6SM BKN015=



000
FTUS41 KCAR 011121
TAFBHB
TAF
KBHB 011121Z 0112/0212 17005KT 1/2SM FG BKN002
     FM011700 16009KT 2SM -SHRA BR VCTS OVC010CB
     FM012200 14008KT 2SM BR OVC005
     FM020000 13007KT 2SM BR OVC003 WS020/22035KT
     FM020200 15006KT P6SM BKN003
     FM020900 21005KT P6SM SCT001
      AMD LTD TO CLD VIS AND WIND=



000
FTUS41 KCAR 011121
TAFHUL
TAF
KHUL 011121Z 0112/0212 15005KT P6SM BKN250
     FM011600 16005KT P6SM OVC025
     FM011900 16006KT 6SM -SHRA OVC025
     FM012000 16006KT 6SM -SHRA VCTS OVC040CB
     FM012200 16007KT P6SM OVC040
     FM020000 16008KT P6SM OVC010 WS020/15040KT
     FM020100 16008KT P6SM OVC010
     FM021100 22005KT P6SM BKN015=



000
FTUS41 KCAR 011026 AAC
TAFBHB
TAF AMD
KBHB 011026Z 0110/0206 18004KT 2SM BR BKN001
     FM011500 15009KT 3SM -SHRA OVC025
     FM011800 14008KT 4SM -TSRA OVC030CB
     FM012000 14008KT 4SM -SHRA BR OVC020
     FM020000 13007KT P6SM OVC003 WS020/20035KT
     FM020400 18006KT P6SM BKN003
      AMD LTD TO CLD VIS AND WIND=



000
FTUS41 KCAR 011024 AAA
TAFBGR
TAF AMD
KBGR 011024Z 0110/0206 VRB03KT P6SM BKN070
     FM011200 17004KT P6SM BKN015
     FM011600 16008KT 6SM -SHRA OVC020
     FM011800 16009KT 6SM -TSRA OVC030CB
     FM012000 15008KT 6SM -SHRA OVC020
     FM012200 15007KT P6SM OVC008
     FM012300 14007KT P6SM OVC005=



000
FTUS41 KCAR 011005 AAB
TAFBHB
TAF AMD
KBHB 011005Z 0110/0206 18004KT 2SM BR BKN001
     FM011500 15009KT 3SM -SHRA OVC025
     FM012200 14008KT P6SM OVC005
     FM020000 13007KT P6SM OVC003 WS020/20035KT
     FM020400 18006KT P6SM BKN003
      AMD LTD TO CLD VIS AND WIND=



000
FTUS41 KCAR 011005 AAB
TAFBHB
TAF AMD
KBHB 011005Z 0110/0206 18004KT 2SM BR BKN001
     FM011500 15009KT 3SM -SHRA OVC025
     FM012200 14008KT P6SM OVC005
     FM020000 13007KT P6SM OVC003 WS020/20035KT
     FM020400 18006KT P6SM BKN003
      AMD LTD TO CLD VIS AND WIND=



000
FTUS41 KCAR 010906 AAA
TAFHUL
TAF AMD
KHUL 010906Z 0109/0206 19006KT P6SM BKN250
     FM011000 17005KT P6SM BKN050
     FM011500 16005KT P6SM BKN015
     FM011900 16006KT 6SM -SHRA BKN025
     FM012000 16006KT 6SM -SHRA BKN035
     FM012200 16007KT P6SM OVC040
     FM020500 16007KT P6SM OVC005=



000
FTUS41 KCAR 010841 AAA
TAFBHB
TAF AMD
KBHB 010841Z 0109/0206 18004KT 5SM BR BKN090
     FM011800 15009KT 6SM -SHRA OVC025
     FM012200 14008KT P6SM OVC005
     FM020000 13007KT P6SM OVC003 WS020/20035KT
     FM020400 18006KT P6SM BKN003
      AMD LTD TO CLD VIS AND WIND=



000
FTUS41 KCAR 010841 AAA
TAFBHB
TAF AMD
KBHB 010841Z 0109/0206 18004KT 5SM BR BKN090
     FM011800 15009KT 6SM -SHRA OVC025
     FM012200 14008KT P6SM OVC005
     FM020000 13007KT P6SM OVC003 WS020/20035KT
     FM020400 18006KT P6SM BKN003
      AMD LTD TO CLD VIS AND WIND=



000
FTUS41 KCAR 010523
TAFBGR
TAF
KBGR 010523Z 0106/0206 VRB03KT P6SM BKN070
     FM011200 17004KT P6SM BKN015
     FM011600 16008KT 6SM -SHRA OVC020
     FM011800 16009KT 6SM -SHRA OVC045
     FM012000 15008KT 6SM -SHRA OVC020
     FM012200 15007KT P6SM OVC008
     FM012300 14007KT P6SM OVC005=



000
FTUS41 KCAR 010523
TAFPQI
TAF
KPQI 010523Z 0106/0206 17005KT P6SM BKN250
     FM011400 16007KT P6SM BKN025
     FM011500 16007KT P6SM BKN015
     FM012100 16009KT 6SM -SHRA OVC025
     FM012300 17009KT P6SM OVC035
     FM020100 17009KT P6SM OVC030
     FM020300 16009KT P6SM OVC008
      AMD LTD TO CLD VIS AND WIND=



000
FTUS41 KCAR 010523
TAFHUL
TAF
KHUL 010523Z 0106/0206 19006KT P6SM BKN250
     FM010900 17005KT P6SM BKN025
     FM011000 17005KT P6SM BKN050
     FM011500 16005KT P6SM BKN015
     FM011900 16006KT 6SM -SHRA BKN025
     FM012000 16006KT 6SM -SHRA BKN035
     FM012200 16007KT P6SM OVC040
     FM020500 16007KT P6SM OVC005=



000
FTUS41 KCAR 010523
TAFCAR
TAF
KCAR 010523Z 0106/0206 17005KT P6SM BKN250
     FM011400 16007KT P6SM BKN025
     FM011500 16007KT P6SM BKN020
     FM011600 16008KT 6SM -SHRA BKN015
     FM011800 16008KT 6SM -SHRA OVC010
     FM012300 17009KT 6SM -SHRA OVC030
     FM020300 16008KT P6SM OVC008=



000
FTUS41 KCAR 010523
TAFBHB
TAF
KBHB 010523Z 0106/0206 18004KT P6SM BKN090
     FM010800 18004KT 3SM BR BKN090
     FM011800 15009KT 6SM -SHRA OVC025
     FM012200 14008KT P6SM OVC005
     FM020000 13007KT P6SM OVC003 WS020/20035KT
     FM020400 18006KT P6SM BKN003
      AMD LTD TO CLD VIS AND WIND=



000
FTUS41 KCAR 010523
TAFBGR
TAF
KBGR 010523Z 0106/0206 VRB03KT P6SM BKN070
     FM011200 17004KT P6SM BKN015
     FM011600 16008KT 6SM -SHRA OVC020
     FM011800 16009KT 6SM -SHRA OVC045
     FM012000 15008KT 6SM -SHRA OVC020
     FM012200 15007KT P6SM OVC008
     FM012300 14007KT P6SM OVC005=



000
FTUS41 KCAR 010523
TAFHUL
TAF
KHUL 010523Z 0106/0206 19006KT P6SM BKN250
     FM010900 17005KT P6SM BKN025
     FM011000 17005KT P6SM BKN050
     FM011500 16005KT P6SM BKN015
     FM011900 16006KT 6SM -SHRA BKN025
     FM012000 16006KT 6SM -SHRA BKN035
     FM012200 16007KT P6SM OVC040
     FM020500 16007KT P6SM OVC005=



000
FTUS41 KCAR 010523
TAFCAR
TAF
KCAR 010523Z 0106/0206 17005KT P6SM BKN250
     FM011400 16007KT P6SM BKN025
     FM011500 16007KT P6SM BKN020
     FM011600 16008KT 6SM -SHRA BKN015
     FM011800 16008KT 6SM -SHRA OVC010
     FM012300 17009KT 6SM -SHRA OVC030
     FM020300 16008KT P6SM OVC008=



000
FTUS41 KCAR 010523
TAFBHB
TAF
KBHB 010523Z 0106/0206 18004KT P6SM BKN090
     FM010800 18004KT 3SM BR BKN090
     FM011800 15009KT 6SM -SHRA OVC025
     FM012200 14008KT P6SM OVC005
     FM020000 13007KT P6SM OVC003 WS020/20035KT
     FM020400 18006KT P6SM BKN003
      AMD LTD TO CLD VIS AND WIND=



000
FTUS41 KCAR 010523
TAFPQI
TAF
KPQI 010523Z 0106/0206 17005KT P6SM BKN250
     FM011400 16007KT P6SM BKN025
     FM011500 16007KT P6SM BKN015
     FM012100 16009KT 6SM -SHRA OVC025
     FM012300 17009KT P6SM OVC035
     FM020100 17009KT P6SM OVC030
     FM020300 16009KT P6SM OVC008
      AMD LTD TO CLD VIS AND WIND=



000
FTUS41 KCAR 010347 AAA
TAFBHB
TAF AMD
KBHB 010347Z 0104/0124 VRB03KT P6SM SCT003 BKN100
     FM010500 VRB03KT 3SM BR SCT004 BKN020
     FM010700 15004KT 1SM BR OVC001
     FM011200 15007KT 5SM BR SCT003 OVC025
     FM011400 14008KT P6SM -SHRA SCT025 OVC035
     FM011800 14008KT 2SM -SHRA OVC006
      AMD LTD TO CLD VIS AND WIND=



000
FTUS41 KCAR 302344
TAFBHB
TAF
KBHB 302344Z 0100/0124 21007KT P6SM SCT250
     FM010300 VRB03KT 5SM BR SCT003 BKN100
     FM010500 VRB03KT 1SM BR SCT001 BKN004
     FM010700 15004KT 1/2SM FG OVC001
     FM011200 15007KT 5SM BR SCT003 OVC025
     FM011400 14008KT P6SM -SHRA SCT025 OVC035
     FM011800 14008KT 2SM -SHRA OVC006
      AMD LTD TO CLD VIS AND WIND=



000
FTUS41 KCAR 302344
TAFCAR
TAF
KCAR 302344Z 0100/0124 VRB03KT P6SM SCT250
     FM010900 17007KT P6SM -RA OVC050
     FM011400 17011KT P6SM BKN025
     FM011700 17011KT 3SM -SHRA OVC020
     FM011900 16010G20KT P6SM -SHRA OVC025
     FM012200 16010KT P6SM -SHRA OVC040=



000
FTUS41 KCAR 302344
TAFBGR
TAF
KBGR 302344Z 0100/0124 18006KT P6SM BKN250
     FM010400 17004KT 3SM BR SCT003 BKN100
     FM010600 VRB03KT 1 1/2SM BR BKN002
     FM010800 VRB03KT 1/2SM FG BKN003
     FM011000 16005KT 6SM BR SCT003 OVC007
     FM011200 16009KT P6SM BKN200
     FM011800 16008KT P6SM -SHRA OVC040=



000
FTUS41 KCAR 302344
TAFPQI
TAF
KPQI 302344Z 0100/0124 VRB03KT P6SM SCT250
     FM011000 17006KT P6SM -RA OVC045
     FM011400 18011KT P6SM BKN030
     FM011700 16010G20KT P6SM -SHRA OVC025
     FM012000 16012KT P6SM -SHRA SCT020 OVC040
     FM012200 16009KT P6SM -SHRA OVC040
      AMD LTD TO CLD VIS AND WIND=



000
FTUS41 KCAR 302344
TAFHUL
TAF
KHUL 302344Z 0100/0124 VRB03KT P6SM BKN250
     FM010800 18004KT 3SM BR BKN010
     FM011000 18005KT 6SM BR SCT015 OVC035
     FM011200 17010KT P6SM SCT020 OVC040
     FM011500 17010KT P6SM BKN040
     FM012000 16010KT P6SM -SHRA OVC045=



000
FTUS41 KCAR 302344
TAFPQI
TAF
KPQI 302344Z 0100/0124 VRB03KT P6SM SCT250
     FM011000 17006KT P6SM -RA OVC045
     FM011400 18011KT P6SM BKN030
     FM011700 16010G20KT P6SM -SHRA OVC025
     FM012000 16012KT P6SM -SHRA SCT020 OVC040
     FM012200 16009KT P6SM -SHRA OVC040
      AMD LTD TO CLD VIS AND WIND=



000
FTUS41 KCAR 302344
TAFCAR
TAF
KCAR 302344Z 0100/0124 VRB03KT P6SM SCT250
     FM010900 17007KT P6SM -RA OVC050
     FM011400 17011KT P6SM BKN025
     FM011700 17011KT 3SM -SHRA OVC020
     FM011900 16010G20KT P6SM -SHRA OVC025
     FM012200 16010KT P6SM -SHRA OVC040=



000
FTUS41 KCAR 302344
TAFBGR
TAF
KBGR 302344Z 0100/0124 18006KT P6SM BKN250
     FM010400 17004KT 3SM BR SCT003 BKN100
     FM010600 VRB03KT 1 1/2SM BR BKN002
     FM010800 VRB03KT 1/2SM FG BKN003
     FM011000 16005KT 6SM BR SCT003 OVC007
     FM011200 16009KT P6SM BKN200
     FM011800 16008KT P6SM -SHRA OVC040=



000
FTUS41 KCAR 302344
TAFHUL
TAF
KHUL 302344Z 0100/0124 VRB03KT P6SM BKN250
     FM010800 18004KT 3SM BR BKN010
     FM011000 18005KT 6SM BR SCT015 OVC035
     FM011200 17010KT P6SM SCT020 OVC040
     FM011500 17010KT P6SM BKN040
     FM012000 16010KT P6SM -SHRA OVC045=



000
FTUS41 KCAR 302344
TAFBHB
TAF
KBHB 302344Z 0100/0124 21007KT P6SM SCT250
     FM010300 VRB03KT 5SM BR SCT003 BKN100
     FM010500 VRB03KT 1SM BR SCT001 BKN004
     FM010700 15004KT 1/2SM FG OVC001
     FM011200 15007KT 5SM BR SCT003 OVC025
     FM011400 14008KT P6SM -SHRA SCT025 OVC035
     FM011800 14008KT 2SM -SHRA OVC006
      AMD LTD TO CLD VIS AND WIND=



000
FTUS41 KCAR 301728 AAA
TAFBGR
TAF AMD
KBGR 301728Z 3017/0118 19008KT P6SM BKN070
     FM010400 17004KT 5SM BR SCT003
     FM010600 VRB03KT 2SM BR BKN002
     FM011300 16009KT P6SM BKN025=



000
FTUS41 KCAR 301728 AAB
TAFPQI
TAF AMD
KPQI 301728Z 3017/0118 25005KT P6SM BKN050
     FM011400 17010KT P6SM BKN040
      AMD LTD TO CLD VIS AND WIND=



000
FTUS41 KCAR 301728 AAB
TAFBHB
TAF AMD
KBHB 301728Z 3017/0118 19008KT P6SM BKN070
     FM010400 17004KT 5SM BR SCT003
     FM010600 VRB03KT 2SM BR BKN002
     FM011300 16009KT P6SM BKN025
      AMD LTD TO CLD VIS AND WIND=



000
FTUS41 KCAR 301728 AAC
TAFCAR
TAF AMD
KCAR 301728Z 3017/0118 25005KT P6SM BKN050
     FM011400 17010KT P6SM BKN040=



000
FTUS41 KCAR 301728 AAA
TAFHUL
TAF AMD
KHUL 301728Z 3017/0118 25005KT P6SM SCT045
     FM010800 18004KT P6SM BKN010
     FM011300 17010KT P6SM BKN040=



000
FTUS41 KCAR 301359 AAA
TAFPQI
TAF AMD
KPQI 301359Z 3014/0112 26006KT P6SM SCT045
     FM302200 23005KT P6SM SCT250
     FM010900 17006KT P6SM BKN045
      AMD LTD TO CLD VIS AND WIND=



000
FTUS41 KCAR 301359 AAA
TAFPQI
TAF AMD
KPQI 301359Z 3014/0112 26006KT P6SM SCT045
     FM302200 23005KT P6SM SCT250
     FM010900 17006KT P6SM BKN045
      AMD LTD TO CLD VIS AND WIND=



000
FTUS41 KCAR 301353 AAB
TAFCAR
TAF AMD
KCAR 301353Z 3014/0112 26006KT P6SM BKN035
     FM301800 26006KT P6SM SCT045
     FM302200 22005KT P6SM SCT250
     FM011000 16006KT P6SM BKN050=



000
FTUS41 KCAR 301209 AAA
TAFBHB
TAF AMD
KBHB 301209Z 3012/0112 00000KT P6SM SCT004 BKN050
     FM301500 22006KT P6SM SCT060
     FM011100 16006KT P6SM BKN025
      AMD LTD TO CLD VIS AND WIND=



000
FTUS41 KCAR 301209 AAA
TAFBHB
TAF AMD
KBHB 301209Z 3012/0112 00000KT P6SM SCT004 BKN050
     FM301500 22006KT P6SM SCT060
     FM011100 16006KT P6SM BKN025
      AMD LTD TO CLD VIS AND WIND=



000
FTUS41 KCAR 301120
TAFPQI
TAF
KPQI 301120Z 3012/0112 26007KT P6SM BKN025
     FM301600 26006KT P6SM BKN035
     FM301800 26006KT P6SM SCT045
     FM302200 23005KT P6SM SCT250
     FM010900 17006KT P6SM BKN045
      AMD LTD TO CLD VIS AND WIND=



000
FTUS41 KCAR 301120
TAFHUL
TAF
KHUL 301120Z 3012/0112 25005KT P6SM BKN080
     FM010000 19006KT P6SM SCT250=



000
FTUS41 KCAR 301120
TAFHUL
TAF
KHUL 301120Z 3012/0112 25005KT P6SM BKN080
     FM010000 19006KT P6SM SCT250=



000
FTUS41 KCAR 301120
TAFBHB
TAF
KBHB 301120Z 3012/0112 00000KT P6SM BKN050
     FM301700 22006KT P6SM SCT060
     FM011100 16006KT P6SM BKN025
      AMD LTD TO CLD VIS AND WIND=



000
FTUS41 KCAR 301120
TAFBHB
TAF
KBHB 301120Z 3012/0112 00000KT P6SM BKN050
     FM301700 22006KT P6SM SCT060
     FM011100 16006KT P6SM BKN025
      AMD LTD TO CLD VIS AND WIND=



000
FTUS41 KCAR 301120
TAFCAR
TAF
KCAR 301120Z 3012/0112 26006KT P6SM BKN023
     FM301600 26006KT P6SM BKN035
     FM301800 26006KT P6SM SCT045
     FM302200 22005KT P6SM SCT250
     FM011000 16006KT P6SM BKN050=



000
FTUS41 KCAR 301120
TAFCAR
TAF
KCAR 301120Z 3012/0112 26006KT P6SM BKN023
     FM301600 26006KT P6SM BKN035
     FM301800 26006KT P6SM SCT045
     FM302200 22005KT P6SM SCT250
     FM011000 16006KT P6SM BKN050=



000
FTUS41 KCAR 301120
TAFPQI
TAF
KPQI 301120Z 3012/0112 26007KT P6SM BKN025
     FM301600 26006KT P6SM BKN035
     FM301800 26006KT P6SM SCT045
     FM302200 23005KT P6SM SCT250
     FM010900 17006KT P6SM BKN045
      AMD LTD TO CLD VIS AND WIND=



000
FTUS41 KCAR 301120
TAFBGR
TAF
KBGR 301120Z 3012/0112 00000KT P6SM BKN080
     FM011100 17005KT P6SM BKN025=



000
FTUS41 KCAR 301120
TAFBGR
TAF
KBGR 301120Z 3012/0112 00000KT P6SM BKN080
     FM011100 17005KT P6SM BKN025=



000
FTUS41 KCAR 300926 AAB
TAFBHB
TAF AMD
KBHB 300926Z 3009/0106 21004KT 5SM BR BKN040
     FM301200 00000KT P6SM SCT025
     FM010100 20006KT P6SM SCT250
      AMD LTD TO CLD VIS AND WIND=



000
FTUS41 KCAR 300926 AAB
TAFBHB
TAF AMD
KBHB 300926Z 3009/0106 21004KT 5SM BR BKN040
     FM301200 00000KT P6SM SCT025
     FM010100 20006KT P6SM SCT250
      AMD LTD TO CLD VIS AND WIND=



000
FTUS41 KCAR 300910 AAA
TAFPQI
TAF AMD
KPQI 300910Z 3009/0106 24005KT P6SM BKN025
     FM301000 26007KT P6SM BKN025
     FM301300 26007KT P6SM BKN050
     FM010200 20005KT P6SM SCT250
      AMD LTD TO CLD VIS AND WIND=



000
FTUS41 KCAR 300910 AAA
TAFBHB
TAF AMD
KBHB 300910Z 3009/0106 21004KT 6SM BR BKN040
     FM301100 00000KT 2SM BR SCT025
     FM301200 00000KT P6SM SCT025
     FM010100 20006KT P6SM SCT250
      AMD LTD TO CLD VIS AND WIND=



000
FTUS41 KCAR 300910 AAA
TAFBHB
TAF AMD
KBHB 300910Z 3009/0106 21004KT 6SM BR BKN040
     FM301100 00000KT 2SM BR SCT025
     FM301200 00000KT P6SM SCT025
     FM010100 20006KT P6SM SCT250
      AMD LTD TO CLD VIS AND WIND=



000
FTUS41 KCAR 300637 AAB
TAFCAR
TAF AMD
KCAR 300637Z 3007/0106 24004KT P6SM BKN025
     FM301100 25006KT P6SM BKN025
     FM301400 26006KT P6SM BKN040
     FM010500 18005KT P6SM SCT250=



000
FTUS41 KCAR 300520
TAFBGR
TAF
KBGR 300520Z 3006/0106 VRB03KT P6SM BKN045
     FM301200 00000KT P6SM SCT250=



000
FTUS41 KCAR 300520
TAFPQI
TAF
KPQI 300520Z 3006/0106 24005KT P6SM BKN060
     FM301000 26007KT P6SM BKN025
     FM301300 26007KT P6SM BKN050
     FM010200 20005KT P6SM SCT250
      AMD LTD TO CLD VIS AND WIND=



000
FTUS41 KCAR 300520
TAFCAR
TAF
KCAR 300520Z 3006/0106 24004KT P6SM BKN070
     FM300800 24004KT 4SM BR BKN045
     FM301100 25006KT P6SM BKN025
     FM301400 26006KT P6SM BKN040
     FM010500 18005KT P6SM SCT250=



000
FTUS41 KCAR 300520
TAFHUL
TAF
KHUL 300520Z 3006/0106 25005KT P6SM BKN060
     FM301200 25005KT P6SM BKN045
     FM302100 23006KT P6SM SCT250=



000
FTUS41 KCAR 300520
TAFBHB
TAF
KBHB 300520Z 3006/0106 21004KT 6SM BR BKN040
     FM300800 00000KT 3SM BR BKN025
     FM301100 00000KT 2SM BR SCT025
     FM301200 00000KT P6SM SCT025
     FM010100 20006KT P6SM SCT250
      AMD LTD TO CLD VIS AND WIND=



000
FTUS41 KCAR 300321 AAB
TAFBHB
TAF AMD
KBHB 300321Z 3003/3024 21006KT P6SM BKN040
     FM300500 00000KT 5SM BR BKN008
     FM301100 00000KT P6SM SCT003 BKN025
      AMD LTD TO CLD VIS AND WIND=



000
FTUS41 KCAR 300321 AAB
TAFBHB
TAF AMD
KBHB 300321Z 3003/3024 21006KT P6SM BKN040
     FM300500 00000KT 5SM BR BKN008
     FM301100 00000KT P6SM SCT003 BKN025
      AMD LTD TO CLD VIS AND WIND=



000
FTUS41 KCAR 300141 AAA
TAFBHB
TAF AMD
KBHB 300141Z 3002/3024 21006KT P6SM BKN040
     FM300300 VRB03KT 6SM BR BKN008
     FM300500 00000KT 5SM BR BKN003
     FM301100 00000KT P6SM SCT003 BKN025
      AMD LTD TO CLD VIS AND WIND=



000
FTUS41 KCAR 300141 AAA
TAFBHB
TAF AMD
KBHB 300141Z 3002/3024 21006KT P6SM BKN040
     FM300300 VRB03KT 6SM BR BKN008
     FM300500 00000KT 5SM BR BKN003
     FM301100 00000KT P6SM SCT003 BKN025
      AMD LTD TO CLD VIS AND WIND=



000
FTUS41 KCAR 300140 AAA
TAFHUL
TAF AMD
KHUL 300140Z 3002/3024 27005KT P6SM OVC050
     FM300600 27004KT 6SM BR BKN015
     FM301100 VRB03KT P6SM SCT015 BKN025=



000
FTUS41 KCAR 300140 AAA
TAFPQI
TAF AMD
KPQI 300140Z 3002/3024 27005KT P6SM OVC050
     FM300600 27004KT 6SM BR BKN015
     FM301100 VRB03KT P6SM SCT015 BKN025
      AMD LTD TO CLD VIS AND WIND=



000
FTUS41 KCAR 300139 AAA
TAFCAR
TAF AMD
KCAR 300139Z 3002/3024 27005KT P6SM OVC050
     FM300600 27004KT 6SM BR BKN015
     FM301100 VRB03KT P6SM SCT015 BKN025=



000
FTUS41 KCAR 292320
TAFCAR
TAF
KCAR 292320Z 3000/3024 27005KT P6SM OVC025
     FM300300 27004KT P6SM BKN015=



000
FTUS41 KCAR 292320
TAFHUL
TAF
KHUL 292320Z 3000/3024 28006KT P6SM OVC030
     FM300400 30005KT P6SM BKN020
     FM300600 30005KT P6SM BKN008
     FM301000 28005KT P6SM BKN015=



000
FTUS41 KCAR 292320
TAFPQI
TAF
KPQI 292320Z 3000/3024 27005KT P6SM OVC030
     FM300200 27004KT P6SM BKN020
     FM300700 27005KT 2SM BR BKN010
     FM301000 27005KT P6SM BKN015
      AMD LTD TO CLD VIS AND WIND=



000
FTUS41 KCAR 292320
TAFBGR
TAF
KBGR 292320Z 3000/3024 22007KT P6SM BKN035
     FM300200 VRB03KT P6SM BKN040=



000
FTUS41 KCAR 292320
TAFHUL
TAF
KHUL 292320Z 3000/3024 VRB03KT P6SM BKN060
     FM300700 VRB03KT 3SM BR BKN015
     FM301100 00000KT P6SM BKN015
     FM301300 VRB03KT P6SM BKN025=



000
FTUS41 KCAR 292320
TAFBHB
TAF
KBHB 292320Z 3000/3024 VRB03KT P6SM BKN060
     FM300500 VRB03KT 1SM BR SCT001 BKN060
     FM301200 VRB03KT P6SM SCT200
     FM301700 22006KT P6SM SCT200
      AMD LTD TO CLD VIS AND WIND=



000
FTUS41 KCAR 292320
TAFPQI
TAF
KPQI 292320Z 3000/3024 VRB03KT P6SM BKN060
     FM300700 VRB03KT 3SM BR BKN015
     FM301100 00000KT P6SM BKN015
     FM301300 VRB03KT P6SM BKN025
      AMD LTD TO CLD VIS AND WIND=



000
FTUS41 KCAR 292320
TAFBGR
TAF
KBGR 292320Z 3000/3024 VRB03KT P6SM BKN060
     FM300500 VRB03KT 1SM BR SCT001 BKN060
     FM301200 VRB03KT P6SM SCT200
     FM301700 22006KT P6SM SCT200=



000
FTUS41 KCAR 292320
TAFCAR
TAF
KCAR 292320Z 3000/3024 VRB03KT P6SM BKN040
     FM300700 VRB03KT 3SM BR BKN015
     FM301100 00000KT P6SM BKN015
     FM301300 VRB03KT P6SM BKN025=



000
FTUS41 KCAR 292320
TAFBHB
TAF
KBHB 292320Z 3000/3024 21006KT P6SM BKN025
     FM300300 VRB03KT P6SM BKN008
     FM300500 00000KT P6SM BKN003
     FM301100 00000KT P6SM SCT025
      AMD LTD TO CLD VIS AND WIND=



000
FTUS41 KCAR 291909 AAD
TAFHUL
TAF AMD
KHUL 291909Z 2919/3018 26006KT P6SM BKN035
     FM300000 VRB03KT P6SM BKN035
     FM300500 VRB03KT 3SM BR BKN040
     FM301200 25004KT P6SM BKN045=



000
FTUS41 KCAR 291909 AAA
TAFBGR
TAF AMD
KBGR 291909Z 2919/3018 21007KT P6SM BKN035
     FM300000 VRB03KT P6SM SCT040
     FM300500 VRB03KT 2SM BR SCT050
     FM301100 VRB03KT P6SM SCT060
     FM301700 22006KT P6SM SCT090=



000
FTUS41 KCAR 291909 AAC
TAFCAR
TAF AMD
KCAR 291909Z 2919/3018 25005KT P6SM BKN035
     FM300700 VRB03KT 4SM BR BKN030
     FM301200 VRB03KT P6SM BKN045=



000
FTUS41 KCAR 291909 AAD
TAFHUL
TAF AMD
KHUL 291909Z 2919/3018 26006KT P6SM BKN035
     FM300000 VRB03KT P6SM BKN035
     FM300500 VRB03KT 3SM BR BKN040
     FM301200 25004KT P6SM BKN045=



000
FTUS41 KCAR 291909 AAA
TAFBGR
TAF AMD
KBGR 291909Z 2919/3018 21007KT P6SM BKN035
     FM300000 VRB03KT P6SM SCT040
     FM300500 VRB03KT 2SM BR SCT050
     FM301100 VRB03KT P6SM SCT060
     FM301700 22006KT P6SM SCT090=



000
FTUS41 KCAR 291909 AAB
TAFPQI
TAF AMD
KPQI 291909Z 2919/3018 25005KT P6SM BKN035
     FM300700 VRB03KT 4SM BR BKN030
     FM301200 VRB03KT P6SM BKN045
      AMD LTD TO CLD VIS AND WIND=



000
FTUS41 KCAR 291909 AAB
TAFPQI
TAF AMD
KPQI 291909Z 2919/3018 25005KT P6SM BKN035
     FM300700 VRB03KT 4SM BR BKN030
     FM301200 VRB03KT P6SM BKN045
      AMD LTD TO CLD VIS AND WIND=



000
FTUS41 KCAR 291909 AAC
TAFCAR
TAF AMD
KCAR 291909Z 2919/3018 25005KT P6SM BKN035
     FM300700 VRB03KT 4SM BR BKN030
     FM301200 VRB03KT P6SM BKN045=



000
FTUS41 KCAR 291909 AAA
TAFBHB
TAF AMD
KBHB 291909Z 2919/3018 20008KT P6SM SCT050
     FM300400 VRB03KT 2SM BR SCT050
     FM300800 VRB03KT 1SM BR SCT002
     FM301200 VRB03KT P6SM SCT060
     FM301600 23006KT P6SM SCT100
      AMD LTD TO CLD VIS AND WIND=



000
FTUS41 KCAR 291909 AAA
TAFBHB
TAF AMD
KBHB 291909Z 2919/3018 20008KT P6SM SCT050
     FM300400 VRB03KT 2SM BR SCT050
     FM300800 VRB03KT 1SM BR SCT002
     FM301200 VRB03KT P6SM SCT060
     FM301600 23006KT P6SM SCT100
      AMD LTD TO CLD VIS AND WIND=



000
FTUS41 KCAR 291833 RRA
TAFBGR
TAF
KBGR 291833Z 2919/3018 22007KT P6SM BKN035
     FM300200 VRB03KT P6SM BKN040=



000
FTUS41 KCAR 291833 RRA
TAFBHB
TAF
KBHB 291833Z 2919/3018 22010G17KT P6SM BKN040
     FM292300 21006KT P6SM BKN025
     FM300300 VRB03KT P6SM BKN008
     FM300500 00000KT P6SM BKN003
     FM301100 00000KT P6SM SCT025
      AMD LTD TO CLD VIS AND WIND=



000
FTUS41 KCAR 291833 RRA
TAFPQI
TAF
KPQI 291833Z 2919/3018 27005KT P6SM OVC025
     FM292100 27005KT P6SM OVC030
     FM300200 27004KT P6SM BKN020
     FM300700 27005KT 2SM BR BKN010
     FM301000 27005KT P6SM BKN015
      AMD LTD TO CLD VIS AND WIND=



000
FTUS41 KCAR 291833 RRA
TAFHUL
TAF
KHUL 291833Z 2919/3018 28006KT P6SM OVC030
     FM300400 30005KT P6SM BKN020
     FM300600 30005KT P6SM BKN008
     FM301000 28005KT P6SM BKN015=



000
FTUS41 KCAR 291833 RRA
TAFHUL
TAF
KHUL 291833Z 2919/3018 28006KT P6SM OVC030
     FM300400 30005KT P6SM BKN020
     FM300600 30005KT P6SM BKN008
     FM301000 28005KT P6SM BKN015=



000
FTUS41 KCAR 291833 RRA
TAFBGR
TAF
KBGR 291833Z 2919/3018 22007KT P6SM BKN035
     FM300200 VRB03KT P6SM BKN040=



000
FTUS41 KCAR 291833 RRA
TAFPQI
TAF
KPQI 291833Z 2919/3018 27005KT P6SM OVC025
     FM292100 27005KT P6SM OVC030
     FM300200 27004KT P6SM BKN020
     FM300700 27005KT 2SM BR BKN010
     FM301000 27005KT P6SM BKN015
      AMD LTD TO CLD VIS AND WIND=



000
FTUS41 KCAR 291833 RRA
TAFCAR
TAF
KCAR 291833Z 2919/3018 27005KT P6SM OVC025
     FM300300 27004KT P6SM BKN015=



000
FTUS41 KCAR 291833 RRA
TAFBHB
TAF
KBHB 291833Z 2919/3018 22010G17KT P6SM BKN040
     FM292300 21006KT P6SM BKN025
     FM300300 VRB03KT P6SM BKN008
     FM300500 00000KT P6SM BKN003
     FM301100 00000KT P6SM SCT025
      AMD LTD TO CLD VIS AND WIND=



000
FTUS41 KCAR 291833 RRA
TAFCAR
TAF
KCAR 291833Z 2919/3018 27005KT P6SM OVC025
     FM300300 27004KT P6SM BKN015=



000
FTUS41 KCAR 291344 AAD
TAFCAR
TAF AMD
KCAR 291344Z 2914/3012 02004KT 3SM -DZ BR SCT008 OVC015
     FM291800 27005KT P6SM OVC025
     FM300300 27004KT P6SM BKN015=



000
FTUS41 KCAR 291344 AAD
TAFCAR
TAF AMD
KCAR 291344Z 2914/3012 02004KT 3SM -DZ BR SCT008 OVC015
     FM291800 27005KT P6SM OVC025
     FM300300 27004KT P6SM BKN015=



000
FTUS41 KCAR 291343 AAC
TAFHUL
TAF AMD
KHUL 291343Z 2914/3012 34004KT 4SM -DZ BR OVC008
     FM291500 30005KT P6SM OVC015
     FM291800 27006KT P6SM OVC025
     FM291900 28006KT P6SM OVC030
     FM300400 30005KT P6SM BKN020
     FM300600 30005KT P6SM BKN008
     FM301000 28005KT P6SM BKN015=



000
FTUS41 KCAR 291319 AAB
TAFHUL
TAF AMD
KHUL 291319Z 2913/3012 34004KT P6SM OVC008
     FM291500 30005KT P6SM OVC015
     FM291800 27006KT P6SM OVC025
     FM291900 28006KT P6SM OVC030
     FM300400 30005KT P6SM BKN020
     FM300600 30005KT P6SM BKN008
     FM301000 28005KT P6SM BKN015=



000
FTUS41 KCAR 291319 AAB
TAFHUL
TAF AMD
KHUL 291319Z 2913/3012 34004KT P6SM OVC008
     FM291500 30005KT P6SM OVC015
     FM291800 27006KT P6SM OVC025
     FM291900 28006KT P6SM OVC030
     FM300400 30005KT P6SM BKN020
     FM300600 30005KT P6SM BKN008
     FM301000 28005KT P6SM BKN015=



000
FTUS41 KCAR 291319 AAA
TAFPQI
TAF AMD
KPQI 291319Z 2913/3012 36004KT 5SM -DZ BR OVC012
     FM291600 30005KT P6SM OVC015
     FM291800 27005KT P6SM OVC025
     FM292100 27005KT P6SM OVC030
     FM300200 27004KT P6SM BKN020
     FM300700 27005KT 2SM BR BKN010
     FM301000 27005KT P6SM BKN015
      AMD LTD TO CLD VIS AND WIND=



000
FTUS41 KCAR 291319 AAA
TAFPQI
TAF AMD
KPQI 291319Z 2913/3012 36004KT 5SM -DZ BR OVC012
     FM291600 30005KT P6SM OVC015
     FM291800 27005KT P6SM OVC025
     FM292100 27005KT P6SM OVC030
     FM300200 27004KT P6SM BKN020
     FM300700 27005KT 2SM BR BKN010
     FM301000 27005KT P6SM BKN015
      AMD LTD TO CLD VIS AND WIND=



000
FTUS41 KCAR 291318 AAB
TAFCAR
TAF AMD
KCAR 291318Z 2913/3012 02004KT 3SM -DZ BR BKN007 OVC015
     FM291430 35004KT P6SM OVC008
     FM291600 31005KT P6SM OVC015
     FM291800 27005KT P6SM OVC025
     FM300300 27004KT P6SM BKN015=



000
FTUS41 KCAR 291318 AAB
TAFCAR
TAF AMD
KCAR 291318Z 2913/3012 02004KT 3SM -DZ BR BKN007 OVC015
     FM291430 35004KT P6SM OVC008
     FM291600 31005KT P6SM OVC015
     FM291800 27005KT P6SM OVC025
     FM300300 27004KT P6SM BKN015=



000
FTUS41 KCAR 291210 AAA
TAFHUL
TAF AMD
KHUL 291210Z 2912/3012 34004KT 2SM -DZ BR OVC003
     FM291400 34004KT P6SM OVC008
     FM291600 30005KT P6SM OVC015
     FM291800 27006KT P6SM OVC025
     FM291900 28006KT P6SM OVC030
     FM300400 30005KT P6SM BKN020
     FM300600 30005KT P6SM BKN008
     FM301000 28005KT P6SM BKN015=



000
FTUS41 KCAR 291210 AAA
TAFHUL
TAF AMD
KHUL 291210Z 2912/3012 34004KT 2SM -DZ BR OVC003
     FM291400 34004KT P6SM OVC008
     FM291600 30005KT P6SM OVC015
     FM291800 27006KT P6SM OVC025
     FM291900 28006KT P6SM OVC030
     FM300400 30005KT P6SM BKN020
     FM300600 30005KT P6SM BKN008
     FM301000 28005KT P6SM BKN015=



000
FTUS41 KCAR 291158 AAA
TAFCAR
TAF AMD
KCAR 291158Z 2912/3012 02004KT 1SM -DZ BR BKN005 OVC015
     FM291400 35004KT P6SM OVC008
     FM291600 31005KT P6SM OVC015
     FM291800 27005KT P6SM OVC025
     FM300300 27004KT P6SM BKN015=



000
FTUS41 KCAR 291126
TAFPQI
TAF
KPQI 291126Z 2912/3012 36004KT 2SM -DZ OVC010
     FM291600 30005KT P6SM OVC015
     FM291800 27005KT P6SM OVC025
     FM292100 27005KT P6SM OVC030
     FM300200 27004KT P6SM BKN020
     FM300700 27005KT 2SM BR BKN010
     FM301000 27005KT P6SM BKN015
      AMD LTD TO CLD VIS AND WIND=



000
FTUS41 KCAR 291126
TAFBGR
TAF
KBGR 291126Z 2912/3012 31005KT P6SM OVC007
     FM291500 27006KT P6SM BKN015
     FM291700 23007KT P6SM BKN025
     FM291900 22007KT P6SM BKN035
     FM300200 VRB03KT P6SM BKN040=



000
FTUS41 KCAR 291126
TAFHUL
TAF
KHUL 291126Z 2912/3012 34004KT 3SM -DZ OVC003
     FM291400 34004KT P6SM OVC008
     FM291600 30005KT P6SM OVC015
     FM291800 27006KT P6SM OVC025
     FM291900 28006KT P6SM OVC030
     FM300400 30005KT P6SM BKN020
     FM300600 30005KT P6SM BKN008
     FM301000 28005KT P6SM BKN015=



000
FTUS41 KCAR 291126
TAFCAR
TAF
KCAR 291126Z 2912/3012 02004KT 1SM -DZ OVC015
     FM291400 35004KT P6SM OVC008
     FM291600 31005KT P6SM OVC015
     FM291800 27005KT P6SM OVC025
     FM300300 27004KT P6SM BKN015=



000
FTUS41 KCAR 291126
TAFBHB
TAF
KBHB 291126Z 2912/3012 27006KT P6SM BKN019
     FM291700 23010G17KT P6SM BKN020
     FM291900 22010G17KT P6SM BKN040
     FM292300 21006KT P6SM BKN025
     FM300300 VRB03KT P6SM BKN008
     FM300500 00000KT P6SM BKN003
     FM301100 00000KT P6SM SCT025
      AMD LTD TO CLD VIS AND WIND=



    US Dept of Commerce
    National Oceanic and Atmospheric Administration
    National Weather Service
    1325 East West Highway
    Silver Spring, MD 20910
    Page Author: NWS Internet Services Team
Disclaimer
Information Quality
Credits
Glossary
Privacy Policy
Freedom of Information Act (FOIA)
About Us
Career Opportunities